sensor_id;sensor_type;location;lat;lon;timestamp;P1;durP1;ratioP1;P2;durP2;ratioP2
55053;SDS011;40954;45.668;18.980;2022-07-01T00:01:43;7.32;;;4.47;;
55053;SDS011;40954;45.668;18.980;2022-07-01T00:04:09;7.32;;;4.38;;
55053;SDS011;40954;45.668;18.980;2022-07-01T00:06:36;9.38;;;5.43;;
55053;SDS011;40954;45.668;18.980;2022-07-01T00:09:02;7.05;;;4.88;;
55053;SDS011;40954;45.668;18.980;2022-07-01T00:11:29;6.65;;;4.15;;
55053;SDS011;40954;45.668;18.980;2022-07-01T00:13:56;8.35;;;4.95;;
55053;SDS011;40954;45.668;18.980;2022-07-01T00:16:22;10.18;;;5.25;;
55053;SDS011;40954;45.668;18.980;2022-07-01T00:18:48;10.75;;;5.00;;
55053;SDS011;40954;45.668;18.980;2022-07-01T00:21:14;7.50;;;4.70;;
55053;SDS011;40954;45.668;18.980;2022-07-01T00:23:41;7.20;;;4.90;;
55053;SDS011;40954;45.668;18.980;2022-07-01T00:26:07;7.28;;;4.22;;
55053;SDS011;40954;45.668;18.980;2022-07-01T00:28:33;5.28;;;4.05;;
55053;SDS011;40954;45.668;18.980;2022-07-01T00:30:59;6.30;;;4.28;;
55053;SDS011;40954;45.668;18.980;2022-07-01T00:33:25;13.70;;;4.55;;
55053;SDS011;40954;45.668;18.980;2022-07-01T00:35:51;13.13;;;5.47;;
55053;SDS011;40954;45.668;18.980;2022-07-01T00:38:18;10.60;;;5.13;;
55053;SDS011;40954;45.668;18.980;2022-07-01T00:40:44;7.57;;;4.78;;
55053;SDS011;40954;45.668;18.980;2022-07-01T00:43:10;7.95;;;4.32;;
55053;SDS011;40954;45.668;18.980;2022-07-01T00:45:42;10.93;;;5.97;;
55053;SDS011;40954;45.668;18.980;2022-07-01T00:48:08;6.65;;;4.45;;
55053;SDS011;40954;45.668;18.980;2022-07-01T00:50:34;11.95;;;6.43;;
55053;SDS011;40954;45.668;18.980;2022-07-01T00:53:00;8.50;;;4.80;;
55053;SDS011;40954;45.668;18.980;2022-07-01T00:55:26;7.95;;;5.50;;
55053;SDS011;40954;45.668;18.980;2022-07-01T00:57:52;5.38;;;4.05;;
55053;SDS011;40954;45.668;18.980;2022-07-01T01:00:18;7.35;;;4.28;;
55053;SDS011;40954;45.668;18.980;2022-07-01T01:02:48;8.77;;;5.13;;
55053;SDS011;40954;45.668;18.980;2022-07-01T01:05:14;13.35;;;5.72;;
55053;SDS011;40954;45.668;18.980;2022-07-01T01:07:42;9.55;;;5.13;;
55053;SDS011;40954;45.668;18.980;2022-07-01T01:10:09;6.70;;;5.25;;
55053;SDS011;40954;45.668;18.980;2022-07-01T01:12:35;9.43;;;5.28;;
55053;SDS011;40954;45.668;18.980;2022-07-01T01:15:01;9.00;;;5.35;;
55053;SDS011;40954;45.668;18.980;2022-07-01T01:17:28;8.60;;;5.72;;
55053;SDS011;40954;45.668;18.980;2022-07-01T01:19:54;13.57;;;6.13;;
55053;SDS011;40954;45.668;18.980;2022-07-01T01:22:20;9.63;;;5.45;;
55053;SDS011;40954;45.668;18.980;2022-07-01T01:24:46;14.82;;;5.97;;
55053;SDS011;40954;45.668;18.980;2022-07-01T01:27:12;18.63;;;7.53;;
55053;SDS011;40954;45.668;18.980;2022-07-01T01:29:39;14.75;;;7.80;;
55053;SDS011;40954;45.668;18.980;2022-07-01T01:32:05;14.45;;;7.45;;
55053;SDS011;40954;45.668;18.980;2022-07-01T01:34:32;11.82;;;6.82;;
55053;SDS011;40954;45.668;18.980;2022-07-01T01:36:58;9.73;;;6.35;;
55053;SDS011;40954;45.668;18.980;2022-07-01T01:39:25;9.48;;;6.40;;
55053;SDS011;40954;45.668;18.980;2022-07-01T01:41:51;12.18;;;6.30;;
55053;SDS011;40954;45.668;18.980;2022-07-01T01:44:17;23.13;;;8.35;;
55053;SDS011;40954;45.668;18.980;2022-07-01T01:46:43;10.90;;;7.15;;
55053;SDS011;40954;45.668;18.980;2022-07-01T01:49:10;10.98;;;5.85;;
55053;SDS011;40954;45.668;18.980;2022-07-01T01:51:36;11.23;;;6.45;;
55053;SDS011;40954;45.668;18.980;2022-07-01T01:54:02;15.75;;;7.15;;
55053;SDS011;40954;45.668;18.980;2022-07-01T01:56:28;11.88;;;5.93;;
55053;SDS011;40954;45.668;18.980;2022-07-01T01:58:55;9.32;;;6.57;;
55053;SDS011;40954;45.668;18.980;2022-07-01T02:01:21;12.90;;;7.20;;
55053;SDS011;40954;45.668;18.980;2022-07-01T02:03:47;10.48;;;5.80;;
55053;SDS011;40954;45.668;18.980;2022-07-01T02:06:14;11.82;;;6.45;;
55053;SDS011;40954;45.668;18.980;2022-07-01T02:08:40;11.55;;;6.25;;
55053;SDS011;40954;45.668;18.980;2022-07-01T02:11:07;7.35;;;5.70;;
55053;SDS011;40954;45.668;18.980;2022-07-01T02:13:33;12.85;;;6.82;;
55053;SDS011;40954;45.668;18.980;2022-07-01T02:15:59;10.30;;;6.10;;
55053;SDS011;40954;45.668;18.980;2022-07-01T02:18:26;7.60;;;5.75;;
55053;SDS011;40954;45.668;18.980;2022-07-01T02:20:53;8.70;;;5.85;;
55053;SDS011;40954;45.668;18.980;2022-07-01T02:23:19;7.78;;;5.25;;
55053;SDS011;40954;45.668;18.980;2022-07-01T02:25:45;10.27;;;5.40;;
55053;SDS011;40954;45.668;18.980;2022-07-01T02:28:11;11.07;;;6.55;;
55053;SDS011;40954;45.668;18.980;2022-07-01T02:30:37;14.98;;;6.25;;
55053;SDS011;40954;45.668;18.980;2022-07-01T02:33:04;9.75;;;5.97;;
55053;SDS011;40954;45.668;18.980;2022-07-01T02:35:31;16.92;;;8.90;;
55053;SDS011;40954;45.668;18.980;2022-07-01T02:37:57;13.55;;;7.50;;
55053;SDS011;40954;45.668;18.980;2022-07-01T02:40:23;9.93;;;6.28;;
55053;SDS011;40954;45.668;18.980;2022-07-01T02:42:49;16.85;;;8.30;;
55053;SDS011;40954;45.668;18.980;2022-07-01T02:45:15;13.18;;;7.68;;
55053;SDS011;40954;45.668;18.980;2022-07-01T02:47:41;12.73;;;6.93;;
55053;SDS011;40954;45.668;18.980;2022-07-01T02:50:08;13.52;;;8.07;;
55053;SDS011;40954;45.668;18.980;2022-07-01T02:52:35;12.77;;;6.57;;
55053;SDS011;40954;45.668;18.980;2022-07-01T02:55:06;10.18;;;6.00;;
55053;SDS011;40954;45.668;18.980;2022-07-01T02:57:32;11.18;;;7.18;;
55053;SDS011;40954;45.668;18.980;2022-07-01T02:59:59;10.05;;;6.95;;
55053;SDS011;40954;45.668;18.980;2022-07-01T03:02:25;9.82;;;7.40;;
55053;SDS011;40954;45.668;18.980;2022-07-01T03:04:52;7.38;;;6.10;;
55053;SDS011;40954;45.668;18.980;2022-07-01T03:07:18;13.85;;;7.68;;
55053;SDS011;40954;45.668;18.980;2022-07-01T03:09:45;11.38;;;7.13;;
55053;SDS011;40954;45.668;18.980;2022-07-01T03:12:11;12.13;;;6.85;;
55053;SDS011;40954;45.668;18.980;2022-07-01T03:15:12;13.07;;;6.53;;
55053;SDS011;40954;45.668;18.980;2022-07-01T03:17:37;10.40;;;7.15;;
55053;SDS011;40954;45.668;18.980;2022-07-01T03:20:04;22.13;;;8.60;;
55053;SDS011;40954;45.668;18.980;2022-07-01T03:22:31;15.48;;;6.65;;
55053;SDS011;40954;45.668;18.980;2022-07-01T03:24:57;22.00;;;8.40;;
55053;SDS011;40954;45.668;18.980;2022-07-01T03:27:24;11.43;;;7.07;;
55053;SDS011;40954;45.668;18.980;2022-07-01T03:29:50;17.60;;;7.05;;
55053;SDS011;40954;45.668;18.980;2022-07-01T03:32:16;16.13;;;7.70;;
55053;SDS011;40954;45.668;18.980;2022-07-01T03:34:44;10.90;;;6.70;;
55053;SDS011;40954;45.668;18.980;2022-07-01T03:37:11;15.85;;;6.65;;
55053;SDS011;40954;45.668;18.980;2022-07-01T03:39:38;12.70;;;7.32;;
55053;SDS011;40954;45.668;18.980;2022-07-01T03:42:04;17.98;;;7.60;;
55053;SDS011;40954;45.668;18.980;2022-07-01T03:44:31;14.27;;;7.13;;
55053;SDS011;40954;45.668;18.980;2022-07-01T03:46:57;17.17;;;7.95;;
55053;SDS011;40954;45.668;18.980;2022-07-01T03:49:23;14.60;;;7.28;;
55053;SDS011;40954;45.668;18.980;2022-07-01T03:51:50;12.38;;;6.20;;
55053;SDS011;40954;45.668;18.980;2022-07-01T03:54:16;15.18;;;6.65;;
55053;SDS011;40954;45.668;18.980;2022-07-01T03:57:07;17.25;;;6.80;;
55053;SDS011;40954;45.668;18.980;2022-07-01T03:59:35;12.38;;;6.82;;
55053;SDS011;40954;45.668;18.980;2022-07-01T04:02:01;17.40;;;7.47;;
55053;SDS011;40954;45.668;18.980;2022-07-01T04:04:27;10.88;;;6.20;;
55053;SDS011;40954;45.668;18.980;2022-07-01T04:06:53;14.43;;;6.72;;
55053;SDS011;40954;45.668;18.980;2022-07-01T04:09:20;12.23;;;6.60;;
55053;SDS011;40954;45.668;18.980;2022-07-01T04:11:47;8.98;;;5.78;;
55053;SDS011;40954;45.668;18.980;2022-07-01T04:14:14;13.75;;;6.82;;
55053;SDS011;40954;45.668;18.980;2022-07-01T04:16:40;9.48;;;5.22;;
55053;SDS011;40954;45.668;18.980;2022-07-01T04:19:07;9.32;;;5.45;;
55053;SDS011;40954;45.668;18.980;2022-07-01T04:21:37;14.00;;;6.70;;
55053;SDS011;40954;45.668;18.980;2022-07-01T04:24:22;15.18;;;5.75;;
55053;SDS011;40954;45.668;18.980;2022-07-01T04:26:49;8.68;;;5.60;;
55053;SDS011;40954;45.668;18.980;2022-07-01T04:29:15;6.32;;;4.93;;
55053;SDS011;40954;45.668;18.980;2022-07-01T04:31:41;7.68;;;4.97;;
55053;SDS011;40954;45.668;18.980;2022-07-01T04:34:08;14.35;;;6.57;;
55053;SDS011;40954;45.668;18.980;2022-07-01T04:36:34;11.55;;;5.22;;
55053;SDS011;40954;45.668;18.980;2022-07-01T04:39:01;9.73;;;5.40;;
55053;SDS011;40954;45.668;18.980;2022-07-01T04:41:28;10.05;;;5.45;;
55053;SDS011;40954;45.668;18.980;2022-07-01T04:44:13;9.90;;;4.88;;
55053;SDS011;40954;45.668;18.980;2022-07-01T04:46:40;14.07;;;5.90;;
55053;SDS011;40954;45.668;18.980;2022-07-01T04:49:06;8.25;;;4.97;;
55053;SDS011;40954;45.668;18.980;2022-07-01T04:51:32;9.50;;;5.22;;
55053;SDS011;40954;45.668;18.980;2022-07-01T04:54:03;8.45;;;4.68;;
55053;SDS011;40954;45.668;18.980;2022-07-01T04:56:29;12.30;;;5.28;;
55053;SDS011;40954;45.668;18.980;2022-07-01T04:58:56;6.47;;;4.68;;
55053;SDS011;40954;45.668;18.980;2022-07-01T05:01:22;11.88;;;5.82;;
55053;SDS011;40954;45.668;18.980;2022-07-01T05:03:48;6.65;;;5.57;;
55053;SDS011;40954;45.668;18.980;2022-07-01T05:06:14;9.48;;;5.72;;
55053;SDS011;40954;45.668;18.980;2022-07-01T05:08:40;12.85;;;5.90;;
55053;SDS011;40954;45.668;18.980;2022-07-01T05:11:06;9.57;;;5.40;;
55053;SDS011;40954;45.668;18.980;2022-07-01T05:13:33;10.57;;;5.80;;
55053;SDS011;40954;45.668;18.980;2022-07-01T05:15:59;13.32;;;6.75;;
55053;SDS011;40954;45.668;18.980;2022-07-01T05:18:25;10.55;;;5.35;;
55053;SDS011;40954;45.668;18.980;2022-07-01T05:21:10;11.05;;;8.13;;
55053;SDS011;40954;45.668;18.980;2022-07-01T05:23:55;10.80;;;6.85;;
55053;SDS011;40954;45.668;18.980;2022-07-01T05:26:21;16.48;;;9.20;;
55053;SDS011;40954;45.668;18.980;2022-07-01T05:28:48;18.38;;;9.07;;
55053;SDS011;40954;45.668;18.980;2022-07-01T05:31:14;14.75;;;6.55;;
55053;SDS011;40954;45.668;18.980;2022-07-01T05:33:40;12.68;;;6.95;;
55053;SDS011;40954;45.668;18.980;2022-07-01T05:36:06;13.80;;;7.93;;
55053;SDS011;40954;45.668;18.980;2022-07-01T05:38:32;18.42;;;12.10;;
55053;SDS011;40954;45.668;18.980;2022-07-01T05:40:58;13.07;;;7.38;;
55053;SDS011;40954;45.668;18.980;2022-07-01T05:43:24;12.25;;;7.55;;
55053;SDS011;40954;45.668;18.980;2022-07-01T05:45:50;21.77;;;13.18;;
55053;SDS011;40954;45.668;18.980;2022-07-01T05:48:16;21.45;;;13.60;;
55053;SDS011;40954;45.668;18.980;2022-07-01T05:50:42;11.25;;;8.98;;
55053;SDS011;40954;45.668;18.980;2022-07-01T05:53:08;16.88;;;5.45;;
55053;SDS011;40954;45.668;18.980;2022-07-01T05:55:35;10.27;;;8.55;;
55053;SDS011;40954;45.668;18.980;2022-07-01T05:58:01;17.23;;;13.38;;
55053;SDS011;40954;45.668;18.980;2022-07-01T06:00:27;10.20;;;5.53;;
55053;SDS011;40954;45.668;18.980;2022-07-01T06:02:53;16.35;;;13.00;;
55053;SDS011;40954;45.668;18.980;2022-07-01T06:05:20;11.63;;;5.80;;
55053;SDS011;40954;45.668;18.980;2022-07-01T06:07:46;14.88;;;10.02;;
55053;SDS011;40954;45.668;18.980;2022-07-01T06:10:12;12.25;;;5.28;;
55053;SDS011;40954;45.668;18.980;2022-07-01T06:12:38;14.82;;;5.20;;
55053;SDS011;40954;45.668;18.980;2022-07-01T06:15:08;16.38;;;8.80;;
55053;SDS011;40954;45.668;18.980;2022-07-01T06:17:35;11.52;;;5.78;;
55053;SDS011;40954;45.668;18.980;2022-07-01T06:20:02;9.48;;;5.50;;
55053;SDS011;40954;45.668;18.980;2022-07-01T06:22:28;13.93;;;11.95;;
55053;SDS011;40954;45.668;18.980;2022-07-01T06:24:54;20.42;;;12.30;;
55053;SDS011;40954;45.668;18.980;2022-07-01T06:27:20;16.35;;;10.88;;
55053;SDS011;40954;45.668;18.980;2022-07-01T06:29:46;16.35;;;11.52;;
55053;SDS011;40954;45.668;18.980;2022-07-01T06:32:12;12.60;;;7.43;;
55053;SDS011;40954;45.668;18.980;2022-07-01T06:34:38;14.70;;;11.10;;
55053;SDS011;40954;45.668;18.980;2022-07-01T06:37:04;15.57;;;8.32;;
55053;SDS011;40954;45.668;18.980;2022-07-01T06:39:30;11.05;;;7.75;;
55053;SDS011;40954;45.668;18.980;2022-07-01T06:41:56;13.52;;;9.13;;
55053;SDS011;40954;45.668;18.980;2022-07-01T06:44:23;11.25;;;10.07;;
55053;SDS011;40954;45.668;18.980;2022-07-01T06:46:49;13.15;;;9.98;;
55053;SDS011;40954;45.668;18.980;2022-07-01T06:49:15;14.88;;;8.15;;
55053;SDS011;40954;45.668;18.980;2022-07-01T06:51:41;10.65;;;9.00;;
55053;SDS011;40954;45.668;18.980;2022-07-01T06:54:07;14.50;;;10.52;;
55053;SDS011;40954;45.668;18.980;2022-07-01T06:56:33;14.60;;;9.82;;
55053;SDS011;40954;45.668;18.980;2022-07-01T06:58:59;10.10;;;7.53;;
55053;SDS011;40954;45.668;18.980;2022-07-01T07:01:26;10.88;;;8.93;;
55053;SDS011;40954;45.668;18.980;2022-07-01T07:03:53;12.48;;;9.65;;
55053;SDS011;40954;45.668;18.980;2022-07-01T07:06:19;15.80;;;10.20;;
55053;SDS011;40954;45.668;18.980;2022-07-01T07:08:45;20.05;;;6.20;;
55053;SDS011;40954;45.668;18.980;2022-07-01T07:11:11;11.98;;;8.23;;
55053;SDS011;40954;45.668;18.980;2022-07-01T07:13:39;10.95;;;8.45;;
55053;SDS011;40954;45.668;18.980;2022-07-01T07:16:06;9.65;;;7.15;;
55053;SDS011;40954;45.668;18.980;2022-07-01T07:18:32;11.57;;;9.13;;
55053;SDS011;40954;45.668;18.980;2022-07-01T07:20:58;11.00;;;6.88;;
55053;SDS011;40954;45.668;18.980;2022-07-01T07:23:24;10.90;;;7.57;;
55053;SDS011;40954;45.668;18.980;2022-07-01T07:25:50;11.05;;;8.43;;
55053;SDS011;40954;45.668;18.980;2022-07-01T07:28:16;13.38;;;8.05;;
55053;SDS011;40954;45.668;18.980;2022-07-01T07:30:42;35.67;;;9.07;;
55053;SDS011;40954;45.668;18.980;2022-07-01T07:33:08;17.23;;;6.57;;
55053;SDS011;40954;45.668;18.980;2022-07-01T07:35:34;13.30;;;5.38;;
55053;SDS011;40954;45.668;18.980;2022-07-01T07:38:00;11.38;;;5.38;;
55053;SDS011;40954;45.668;18.980;2022-07-01T07:40:26;14.43;;;4.95;;
55053;SDS011;40954;45.668;18.980;2022-07-01T07:42:53;12.45;;;5.20;;
55053;SDS011;40954;45.668;18.980;2022-07-01T07:45:19;17.33;;;5.82;;
55053;SDS011;40954;45.668;18.980;2022-07-01T07:47:46;9.82;;;5.32;;
55053;SDS011;40954;45.668;18.980;2022-07-01T07:50:16;10.90;;;5.28;;
55053;SDS011;40954;45.668;18.980;2022-07-01T07:52:42;12.52;;;5.68;;
55053;SDS011;40954;45.668;18.980;2022-07-01T07:55:09;11.95;;;5.60;;
55053;SDS011;40954;45.668;18.980;2022-07-01T07:57:36;11.93;;;6.22;;
55053;SDS011;40954;45.668;18.980;2022-07-01T08:00:04;13.88;;;5.53;;
55053;SDS011;40954;45.668;18.980;2022-07-01T08:02:31;17.05;;;5.57;;
55053;SDS011;40954;45.668;18.980;2022-07-01T08:04:57;12.30;;;5.47;;
55053;SDS011;40954;45.668;18.980;2022-07-01T08:07:23;9.85;;;5.70;;
55053;SDS011;40954;45.668;18.980;2022-07-01T08:09:49;10.80;;;5.10;;
55053;SDS011;40954;45.668;18.980;2022-07-01T08:12:15;12.95;;;6.97;;
55053;SDS011;40954;45.668;18.980;2022-07-01T08:14:42;11.88;;;5.82;;
55053;SDS011;40954;45.668;18.980;2022-07-01T08:17:08;8.38;;;6.10;;
55053;SDS011;40954;45.668;18.980;2022-07-01T08:19:34;9.38;;;6.38;;
55053;SDS011;40954;45.668;18.980;2022-07-01T08:22:00;9.40;;;6.22;;
55053;SDS011;40954;45.668;18.980;2022-07-01T08:24:26;7.22;;;5.43;;
55053;SDS011;40954;45.668;18.980;2022-07-01T08:26:52;11.15;;;5.80;;
55053;SDS011;40954;45.668;18.980;2022-07-01T08:29:18;9.43;;;5.00;;
55053;SDS011;40954;45.668;18.980;2022-07-01T08:31:45;15.25;;;6.18;;
55053;SDS011;40954;45.668;18.980;2022-07-01T08:34:11;10.60;;;5.57;;
55053;SDS011;40954;45.668;18.980;2022-07-01T08:36:37;8.75;;;5.22;;
55053;SDS011;40954;45.668;18.980;2022-07-01T08:39:03;12.60;;;5.25;;
55053;SDS011;40954;45.668;18.980;2022-07-01T08:41:29;12.15;;;6.07;;
55053;SDS011;40954;45.668;18.980;2022-07-01T08:43:56;14.85;;;5.65;;
55053;SDS011;40954;45.668;18.980;2022-07-01T08:46:22;13.10;;;5.88;;
55053;SDS011;40954;45.668;18.980;2022-07-01T08:48:48;12.35;;;6.50;;
55053;SDS011;40954;45.668;18.980;2022-07-01T08:51:14;10.55;;;5.68;;
55053;SDS011;40954;45.668;18.980;2022-07-01T08:53:41;11.60;;;4.82;;
55053;SDS011;40954;45.668;18.980;2022-07-01T08:56:07;8.00;;;4.97;;
55053;SDS011;40954;45.668;18.980;2022-07-01T08:58:52;12.00;;;4.63;;
55053;SDS011;40954;45.668;18.980;2022-07-01T09:01:19;9.95;;;5.20;;
55053;SDS011;40954;45.668;18.980;2022-07-01T09:03:49;12.25;;;5.05;;
55053;SDS011;40954;45.668;18.980;2022-07-01T09:06:21;9.25;;;5.00;;
55053;SDS011;40954;45.668;18.980;2022-07-01T09:08:47;9.45;;;4.63;;
55053;SDS011;40954;45.668;18.980;2022-07-01T09:11:23;14.80;;;4.72;;
55053;SDS011;40954;45.668;18.980;2022-07-01T09:14:06;8.95;;;4.68;;
55053;SDS011;40954;45.668;18.980;2022-07-01T09:19:26;10.90;;;5.22;;
55053;SDS011;40954;45.668;18.980;2022-07-01T09:21:53;9.35;;;4.25;;
55053;SDS011;40954;45.668;18.980;2022-07-01T09:24:42;10.35;;;4.50;;
55053;SDS011;40954;45.668;18.980;2022-07-01T09:27:14;8.45;;;4.05;;
55053;SDS011;40954;45.668;18.980;2022-07-01T09:29:44;9.10;;;3.85;;
55053;SDS011;40954;45.668;18.980;2022-07-01T09:32:12;10.45;;;4.25;;
55053;SDS011;40954;45.668;18.980;2022-07-01T09:34:45;11.93;;;4.20;;
55053;SDS011;40954;45.668;18.980;2022-07-01T09:37:15;7.80;;;3.80;;
55053;SDS011;40954;45.668;18.980;2022-07-01T09:39:46;8.20;;;3.97;;
55053;SDS011;40954;45.668;18.980;2022-07-01T09:42:12;13.18;;;4.05;;
55053;SDS011;40954;45.668;18.980;2022-07-01T09:44:53;9.30;;;4.00;;
55053;SDS011;40954;45.668;18.980;2022-07-01T09:47:23;8.38;;;3.67;;
55053;SDS011;40954;45.668;18.980;2022-07-01T09:49:53;12.15;;;5.00;;
55053;SDS011;40954;45.668;18.980;2022-07-01T09:52:19;9.43;;;3.58;;
55053;SDS011;40954;45.668;18.980;2022-07-01T09:54:46;13.02;;;4.30;;
55053;SDS011;40954;45.668;18.980;2022-07-01T09:57:12;10.93;;;3.72;;
55053;SDS011;40954;45.668;18.980;2022-07-01T09:59:38;7.10;;;3.70;;
55053;SDS011;40954;45.668;18.980;2022-07-01T10:02:04;11.63;;;4.40;;
55053;SDS011;40954;45.668;18.980;2022-07-01T10:04:32;8.55;;;3.95;;
55053;SDS011;40954;45.668;18.980;2022-07-01T10:07:03;10.70;;;4.35;;
55053;SDS011;40954;45.668;18.980;2022-07-01T10:09:48;8.25;;;4.00;;
55053;SDS011;40954;45.668;18.980;2022-07-01T10:14:44;11.48;;;3.67;;
55053;SDS011;40954;45.668;18.980;2022-07-01T10:17:23;8.63;;;3.22;;
55053;SDS011;40954;45.668;18.980;2022-07-01T10:19:54;10.82;;;3.47;;
55053;SDS011;40954;45.668;18.980;2022-07-01T10:22:24;10.23;;;3.22;;
55053;SDS011;40954;45.668;18.980;2022-07-01T10:24:51;10.80;;;3.60;;
55053;SDS011;40954;45.668;18.980;2022-07-01T10:27:24;8.75;;;3.85;;
55053;SDS011;40954;45.668;18.980;2022-07-01T10:32:35;7.05;;;3.40;;
55053;SDS011;40954;45.668;18.980;2022-07-01T10:35:07;6.85;;;3.60;;
55053;SDS011;40954;45.668;18.980;2022-07-01T10:37:33;5.85;;;3.15;;
55053;SDS011;40954;45.668;18.980;2022-07-01T10:40:00;6.93;;;3.55;;
55053;SDS011;40954;45.668;18.980;2022-07-01T10:42:30;7.88;;;3.33;;
55053;SDS011;40954;45.668;18.980;2022-07-01T10:47:22;10.93;;;4.20;;
55053;SDS011;40954;45.668;18.980;2022-07-01T10:52:17;11.95;;;3.30;;
55053;SDS011;40954;45.668;18.980;2022-07-01T11:02:15;7.32;;;4.10;;
55053;SDS011;40954;45.668;18.980;2022-07-01T11:04:41;9.85;;;4.15;;
55053;SDS011;40954;45.668;18.980;2022-07-01T11:07:08;10.43;;;4.22;;
55053;SDS011;40954;45.668;18.980;2022-07-01T11:09:34;6.65;;;3.90;;
55053;SDS011;40954;45.668;18.980;2022-07-01T11:12:01;13.43;;;4.53;;
55053;SDS011;40954;45.668;18.980;2022-07-01T11:14:27;9.40;;;4.57;;
55053;SDS011;40954;45.668;18.980;2022-07-01T11:16:54;9.48;;;4.22;;
55053;SDS011;40954;45.668;18.980;2022-07-01T11:19:22;7.35;;;4.00;;
55053;SDS011;40954;45.668;18.980;2022-07-01T11:21:49;7.22;;;4.05;;
55053;SDS011;40954;45.668;18.980;2022-07-01T11:24:19;11.43;;;4.00;;
55053;SDS011;40954;45.668;18.980;2022-07-01T11:26:45;14.93;;;4.18;;
55053;SDS011;40954;45.668;18.980;2022-07-01T11:29:12;11.38;;;4.05;;
55053;SDS011;40954;45.668;18.980;2022-07-01T11:31:38;12.23;;;3.70;;
55053;SDS011;40954;45.668;18.980;2022-07-01T11:34:05;7.72;;;3.60;;
55053;SDS011;40954;45.668;18.980;2022-07-01T11:36:31;7.07;;;4.22;;
55053;SDS011;40954;45.668;18.980;2022-07-01T11:39:17;6.70;;;3.85;;
55053;SDS011;40954;45.668;18.980;2022-07-01T11:41:56;6.85;;;4.10;;
55053;SDS011;40954;45.668;18.980;2022-07-01T11:44:39;9.85;;;4.43;;
55053;SDS011;40954;45.668;18.980;2022-07-01T11:47:07;11.38;;;4.22;;
55053;SDS011;40954;45.668;18.980;2022-07-01T11:49:33;7.85;;;4.63;;
55053;SDS011;40954;45.668;18.980;2022-07-01T11:52:05;7.28;;;3.97;;
55053;SDS011;40954;45.668;18.980;2022-07-01T11:54:37;9.40;;;4.57;;
55053;SDS011;40954;45.668;18.980;2022-07-01T11:57:14;8.27;;;4.07;;
55053;SDS011;40954;45.668;18.980;2022-07-01T11:59:41;8.55;;;3.80;;
55053;SDS011;40954;45.668;18.980;2022-07-01T12:02:08;4.80;;;3.58;;
55053;SDS011;40954;45.668;18.980;2022-07-01T12:04:36;11.45;;;3.85;;
55053;SDS011;40954;45.668;18.980;2022-07-01T12:07:02;11.43;;;4.38;;
55053;SDS011;40954;45.668;18.980;2022-07-01T12:09:29;5.60;;;4.32;;
55053;SDS011;40954;45.668;18.980;2022-07-01T12:11:55;7.75;;;4.50;;
55053;SDS011;40954;45.668;18.980;2022-07-01T12:14:22;8.93;;;4.45;;
55053;SDS011;40954;45.668;18.980;2022-07-01T12:16:57;7.95;;;5.57;;
55053;SDS011;40954;45.668;18.980;2022-07-01T12:19:27;8.20;;;4.53;;
55053;SDS011;40954;45.668;18.980;2022-07-01T12:21:54;6.97;;;4.18;;
55053;SDS011;40954;45.668;18.980;2022-07-01T12:24:23;7.43;;;4.37;;
55053;SDS011;40954;45.668;18.980;2022-07-01T12:26:51;8.38;;;4.00;;
55053;SDS011;40954;45.668;18.980;2022-07-01T12:29:18;7.82;;;4.45;;
55053;SDS011;40954;45.668;18.980;2022-07-01T12:31:55;6.28;;;4.07;;
55053;SDS011;40954;45.668;18.980;2022-07-01T12:34:22;7.82;;;4.80;;
55053;SDS011;40954;45.668;18.980;2022-07-01T12:36:48;8.05;;;4.10;;
55053;SDS011;40954;45.668;18.980;2022-07-01T12:39:15;11.02;;;4.15;;
55053;SDS011;40954;45.668;18.980;2022-07-01T12:41:48;21.13;;;4.32;;
55053;SDS011;40954;45.668;18.980;2022-07-01T12:44:21;11.82;;;4.10;;
55053;SDS011;40954;45.668;18.980;2022-07-01T12:46:47;13.60;;;4.60;;
55053;SDS011;40954;45.668;18.980;2022-07-01T12:49:23;6.20;;;3.97;;
55053;SDS011;40954;45.668;18.980;2022-07-01T12:51:50;6.13;;;4.60;;
55053;SDS011;40954;45.668;18.980;2022-07-01T12:54:35;13.38;;;3.97;;
55053;SDS011;40954;45.668;18.980;2022-07-01T12:57:03;9.90;;;4.53;;
55053;SDS011;40954;45.668;18.980;2022-07-01T12:59:29;8.38;;;4.90;;
55053;SDS011;40954;45.668;18.980;2022-07-01T13:01:55;8.27;;;4.47;;
55053;SDS011;40954;45.668;18.980;2022-07-01T13:04:27;7.72;;;4.20;;
55053;SDS011;40954;45.668;18.980;2022-07-01T13:06:53;7.65;;;3.97;;
55053;SDS011;40954;45.668;18.980;2022-07-01T13:09:19;8.40;;;4.13;;
55053;SDS011;40954;45.668;18.980;2022-07-01T13:11:45;6.40;;;4.13;;
55053;SDS011;40954;45.668;18.980;2022-07-01T13:14:12;8.23;;;4.45;;
55053;SDS011;40954;45.668;18.980;2022-07-01T13:16:38;6.78;;;4.53;;
55053;SDS011;40954;45.668;18.980;2022-07-01T13:19:04;9.05;;;3.75;;
55053;SDS011;40954;45.668;18.980;2022-07-01T13:21:30;8.77;;;4.45;;
55053;SDS011;40954;45.668;18.980;2022-07-01T13:23:56;11.35;;;4.38;;
55053;SDS011;40954;45.668;18.980;2022-07-01T13:26:22;11.73;;;5.22;;
55053;SDS011;40954;45.668;18.980;2022-07-01T13:28:48;10.82;;;4.68;;
55053;SDS011;40954;45.668;18.980;2022-07-01T13:31:14;7.38;;;4.47;;
55053;SDS011;40954;45.668;18.980;2022-07-01T13:33:40;8.68;;;4.25;;
55053;SDS011;40954;45.668;18.980;2022-07-01T13:36:06;7.75;;;4.28;;
55053;SDS011;40954;45.668;18.980;2022-07-01T13:38:32;9.43;;;4.20;;
55053;SDS011;40954;45.668;18.980;2022-07-01T13:40:58;10.40;;;4.32;;
55053;SDS011;40954;45.668;18.980;2022-07-01T13:43:24;7.70;;;3.90;;
55053;SDS011;40954;45.668;18.980;2022-07-01T13:45:50;9.52;;;4.15;;
55053;SDS011;40954;45.668;18.980;2022-07-01T13:48:17;8.75;;;4.43;;
55053;SDS011;40954;45.668;18.980;2022-07-01T13:50:43;9.68;;;4.68;;
55053;SDS011;40954;45.668;18.980;2022-07-01T13:53:09;5.85;;;4.50;;
55053;SDS011;40954;45.668;18.980;2022-07-01T13:55:35;6.07;;;3.85;;
55053;SDS011;40954;45.668;18.980;2022-07-01T13:58:01;8.82;;;4.20;;
55053;SDS011;40954;45.668;18.980;2022-07-01T14:00:27;9.43;;;4.80;;
55053;SDS011;40954;45.668;18.980;2022-07-01T14:02:53;8.23;;;4.50;;
55053;SDS011;40954;45.668;18.980;2022-07-01T14:05:19;6.57;;;4.03;;
55053;SDS011;40954;45.668;18.980;2022-07-01T14:07:45;12.15;;;4.70;;
55053;SDS011;40954;45.668;18.980;2022-07-01T14:10:11;13.23;;;4.97;;
55053;SDS011;40954;45.668;18.980;2022-07-01T14:12:37;9.10;;;4.55;;
55053;SDS011;40954;45.668;18.980;2022-07-01T14:15:03;8.70;;;4.53;;
55053;SDS011;40954;45.668;18.980;2022-07-01T14:17:30;9.18;;;4.38;;
55053;SDS011;40954;45.668;18.980;2022-07-01T14:19:56;11.93;;;4.57;;
55053;SDS011;40954;45.668;18.980;2022-07-01T14:22:23;9.23;;;4.70;;
55053;SDS011;40954;45.668;18.980;2022-07-01T14:24:49;8.05;;;4.45;;
55053;SDS011;40954;45.668;18.980;2022-07-01T14:27:15;8.95;;;4.95;;
55053;SDS011;40954;45.668;18.980;2022-07-01T14:29:41;9.68;;;4.80;;
55053;SDS011;40954;45.668;18.980;2022-07-01T14:32:07;8.38;;;4.88;;
55053;SDS011;40954;45.668;18.980;2022-07-01T14:34:33;11.73;;;4.88;;
55053;SDS011;40954;45.668;18.980;2022-07-01T14:36:59;10.90;;;5.18;;
55053;SDS011;40954;45.668;18.980;2022-07-01T14:39:25;9.73;;;4.78;;
55053;SDS011;40954;45.668;18.980;2022-07-01T14:41:51;7.80;;;4.53;;
55053;SDS011;40954;45.668;18.980;2022-07-01T14:44:18;9.60;;;4.47;;
55053;SDS011;40954;45.668;18.980;2022-07-01T14:46:44;7.53;;;4.78;;
55053;SDS011;40954;45.668;18.980;2022-07-01T14:49:10;11.80;;;4.60;;